Time;durP1;ratioP1;P1;durP2;ratioP2;P2;SDS_P1;SDS_P2;PMS_P1;PMS_P2;Temp;Humidity;BMP_temperature;BMP_pressure;BME280_temperature;BME280_humidity;BME280_pressure;Samples;Min_cycle;Max_cycle;Signal;HPM_P1;HPM_P2
2023/10/26 00:01:41;;;;;;;9.50;5.38;;;;;;;9.53;100.00;99561.81;5000757;28;20832;-85
2023/10/26 00:04:56;;;;;;;7.10;4.50;;;;;;;9.57;100.00;99563.41;5034227;28;20026;-85
2023/10/26 00:07:21;;;;;;;5.60;3.65;;;;;;;9.59;100.00;99571.97;5034216;28;20071;-85
2023/10/26 00:09:47;;;;;;;4.93;3.43;;;;;;;9.61;100.00;99572.78;5033067;28;20037;-85
2023/10/26 00:12:12;;;;;;;4.53;3.10;;;;;;;9.57;100.00;99579.81;5034132;28;20029;-84
2023/10/26 00:14:39;;;;;;;3.60;2.80;;;;;;;9.58;100.00;99580.63;5034055;28;20026;-84
2023/10/26 00:17:04;;;;;;;3.95;2.85;;;;;;;9.59;100.00;99582.34;5032333;28;20030;-84
2023/10/26 00:19:34;;;;;;;2.97;2.60;;;;;;;9.63;100.00;99589.13;5033934;28;20125;-84
2023/10/26 00:22:00;;;;;;;3.70;2.75;;;;;;;9.56;100.00;99587.63;5034101;28;20115;-84
2023/10/26 00:24:31;;;;;;;2.87;2.50;;;;;;;9.60;100.00;99599.56;5033633;28;20053;-85
2023/10/26 00:26:58;;;;;;;3.20;2.50;;;;;;;9.57;100.00;99602.25;5033639;28;20439;-85
2023/10/26 00:29:23;;;;;;;;;;;;;;;9.57;100.00;99595.34;5034306;28;20029;-85
2023/10/26 00:31:49;;;;;;;3.27;2.63;;;;;;;9.55;100.00;99596.31;5033205;28;20316;-85
2023/10/26 00:34:14;;;;;;;3.03;2.37;;;;;;;9.51;100.00;99592.09;5033903;28;20053;-85
2023/10/26 00:36:39;;;;;;;2.40;2.20;;;;;;;9.52;100.00;99604.16;5032903;28;20025;-85
2023/10/26 00:39:05;;;;;;;2.73;2.33;;;;;;;9.49;100.00;99596.47;5033701;28;20025;-85
2023/10/26 00:41:31;;;;;;;2.13;1.90;;;;;;;9.51;100.00;99607.63;5033487;28;20099;-85
2023/10/26 00:43:56;;;;;;;2.53;2.20;;;;;;;9.53;100.00;99616.22;5032167;28;20124;-84
2023/10/26 00:46:21;;;;;;;3.10;2.50;;;;;;;9.50;100.00;99611.97;5033974;28;20087;-85
2023/10/26 00:48:51;;;;;;;2.97;2.37;;;;;;;9.47;100.00;99608.63;5033685;28;20017;-85
2023/10/26 00:51:17;;;;;;;3.22;2.50;;;;;;;9.47;100.00;99616.38;5032714;28;20032;-85
2023/10/26 00:53:43;;;;;;;4.00;2.80;;;;;;;9.43;100.00;99610.44;5032774;28;20037;-85
2023/10/26 00:56:11;;;;;;;3.90;2.70;;;;;;;9.43;100.00;99615.63;5033210;28;20025;-85
2023/10/26 00:59:33;;;;;;;3.80;2.80;;;;;;;9.50;100.00;99621.47;5032279;28;20049;-85
2023/10/26 01:05:27;;;;;;;3.47;2.70;;;;;;;9.49;100.00;99617.19;5016701;28;20121;-85
2023/10/26 01:08:07;;;;;;;3.57;2.70;;;;;;;9.49;100.00;99627.53;5032337;28;20104;-85
2023/10/26 01:10:34;;;;;;;3.45;2.50;;;;;;;9.49;100.00;99624.97;5032941;28;20032;-85
2023/10/26 01:13:00;;;;;;;3.67;2.80;;;;;;;9.47;100.00;99627.59;5031387;28;20061;-85
2023/10/26 01:15:27;;;;;;;2.63;2.40;;;;;;;9.51;100.00;99633.53;5033239;28;20056;-84
2023/10/26 01:17:52;;;;;;;3.55;2.67;;;;;;;9.50;100.00;99631.84;5032765;28;20035;-85
2023/10/26 01:20:19;;;;;;;4.17;2.70;;;;;;;9.48;100.00;99633.63;5031629;28;20037;-85
2023/10/26 01:22:44;;;;;;;3.53;2.70;;;;;;;9.43;100.00;99624.25;5032736;28;20108;-85
2023/10/26 01:25:09;;;;;;;4.00;2.73;;;;;;;9.46;100.00;99628.50;5032908;28;20712;-84
2023/10/26 01:27:37;;;;;;;4.40;3.00;;;;;;;9.44;100.00;99627.69;5031817;28;20065;-85
2023/10/26 01:30:02;;;;;;;4.80;3.20;;;;;;;9.46;100.00;99633.69;5032617;28;20068;-85
2023/10/26 01:32:27;;;;;;;4.57;3.13;;;;;;;9.44;100.00;99638.06;5032817;28;20112;-85
2023/10/26 01:34:53;;;;;;;4.40;3.10;;;;;;;9.38;100.00;99628.72;5031534;28;20022;-85
2023/10/26 01:37:18;;;;;;;3.87;2.87;;;;;;;9.38;100.00;99638.25;5032807;28;20028;-85
2023/10/26 01:39:43;;;;;;;4.73;3.27;;;;;;;9.33;100.00;99629.75;5032315;28;20033;-85
2023/10/26 01:42:12;;;;;;;6.60;3.60;;;;;;;9.34;100.00;99632.31;5032076;28;20037;-85
2023/10/26 01:44:38;;;;;;;5.03;3.22;;;;;;;9.22;100.00;99611.97;5031189;28;20383;-85
2023/10/26 01:47:07;;;;;;;5.28;3.22;;;;;;;9.19;100.00;99610.28;5031824;28;20025;-85
2023/10/26 01:49:44;;;;;;;5.38;3.40;;;;;;;9.23;100.00;99622.25;5032855;28;20030;-85
2023/10/26 01:52:10;;;;;;;5.57;3.60;;;;;;;9.12;100.00;99611.38;5032273;28;20508;-85
2023/10/26 01:54:35;;;;;;;5.27;3.53;;;;;;;9.20;100.00;99635.28;5031792;28;20026;-85
2023/10/26 01:57:09;;;;;;;5.20;3.50;;;;;;;9.14;100.00;99626.84;5032163;28;20068;-85
2023/10/26 01:59:41;;;;;;;5.28;3.35;;;;;;;9.05;100.00;99612.44;5032704;28;20029;-85
2023/10/26 02:02:22;;;;;;;6.30;3.80;;;;;;;9.06;100.00;99625.34;5031765;28;20482;-84
2023/10/26 02:04:47;;;;;;;6.00;3.60;;;;;;;8.94;100.00;99621.38;5032071;28;20032;-85
2023/10/26 02:07:12;;;;;;;5.07;3.50;;;;;;;8.92;100.00;99622.28;5032654;28;20420;-85
2023/10/26 02:10:04;;;;;;;5.13;3.37;;;;;;;8.88;100.00;99613.75;5032050;28;20018;-85
2023/10/26 02:12:29;;;;;;;5.00;3.10;;;;;;;8.86;100.00;99612.13;5032514;28;20029;-85
2023/10/26 02:15:04;;;;;;;5.23;3.43;;;;;;;8.83;100.00;99609.63;5032120;28;20028;-85
2023/10/26 02:17:39;;;;;;;5.18;3.42;;;;;;;8.80;100.00;99623.50;5032375;28;20363;-85
2023/10/26 02:20:07;;;;;;;5.75;3.70;;;;;;;8.67;100.00;99606.59;5031399;28;20053;-85
2023/10/26 02:22:33;;;;;;;5.35;3.42;;;;;;;8.67;100.00;99614.34;5031745;28;20029;-85
2023/10/26 02:24:58;;;;;;;6.37;3.60;;;;;;;8.68;100.00;99619.47;5031969;28;20149;-85
2023/10/26 02:27:23;;;;;;;5.27;3.33;;;;;;;8.65;100.00;99617.00;5032528;28;20124;-85
2023/10/26 02:29:49;;;;;;;5.47;3.50;;;;;;;8.61;100.00;99621.38;5031028;28;20025;-84
2023/10/26 02:32:14;;;;;;;5.07;3.42;;;;;;;8.52;100.00;99608.69;5032283;28;20036;-85
2023/10/26 02:34:44;;;;;;;4.70;3.20;;;;;;;8.48;100.00;99610.53;5031961;28;20124;-84
2023/10/26 02:37:10;;;;;;;6.00;3.70;;;;;;;8.47;100.00;99605.38;5031579;28;20052;-85
2023/10/26 02:39:35;;;;;;;4.50;3.13;;;;;;;8.47;100.00;99608.81;5033502;28;20045;-85
2023/10/26 02:42:00;;;;;;;4.37;3.10;;;;;;;8.42;100.00;99608.09;5035226;28;20029;-84
2023/10/26 02:44:26;;;;;;;4.63;3.00;;;;;;;8.40;100.00;99607.28;5034922;28;20029;-84
2023/10/26 02:46:51;;;;;;;4.70;3.10;;;;;;;8.42;100.00;99613.25;5035673;28;20084;-84
2023/10/26 02:49:16;;;;;;;3.70;2.70;;;;;;;8.33;100.00;99605.75;5035445;28;20603;-85
2023/10/26 02:51:41;;;;;;;3.20;2.50;;;;;;;8.36;100.00;99610.81;5034584;28;20036;-85
2023/10/26 02:54:07;;;;;;;4.90;3.20;;;;;;;8.37;100.00;99615.09;5035882;28;20052;-85
2023/10/26 02:56:32;;;;;;;4.33;3.00;;;;;;;8.38;100.00;99615.97;5035657;28;20508;-85
2023/10/26 02:58:57;;;;;;;5.63;3.47;;;;;;;8.35;100.00;99624.63;5034401;28;20021;-85
2023/10/26 03:01:23;;;;;;;4.83;3.23;;;;;;;8.31;100.00;99618.69;5035370;28;20029;-85
2023/10/26 03:03:48;;;;;;;5.47;3.47;;;;;;;8.29;100.00;99606.69;5035378;28;20105;-84
2023/10/26 03:06:13;;;;;;;5.07;3.10;;;;;;;8.31;100.00;99620.44;5034888;28;20159;-85
2023/10/26 03:08:38;;;;;;;6.23;3.70;;;;;;;8.26;100.00;99624.88;5035394;28;20477;-85
2023/10/26 03:11:07;;;;;;;5.87;3.60;;;;;;;8.22;100.00;99618.09;5034779;28;20596;-84
2023/10/26 03:13:34;;;;;;;5.10;3.25;;;;;;;8.18;100.00;99615.56;5033935;28;20049;-85
2023/10/26 03:15:59;;;;;;;5.72;3.45;;;;;;;8.13;100.00;99609.66;5034000;28;20394;-84
2023/10/26 03:18:25;;;;;;;6.47;3.80;;;;;;;8.10;100.00;99611.47;5034291;28;20026;-85
2023/10/26 03:20:50;;;;;;;6.88;4.03;;;;;;;8.13;100.00;99619.16;5034679;28;20121;-84
2023/10/26 03:23:15;;;;;;;5.50;3.83;;;;;;;8.10;100.00;99619.22;5035198;28;20036;-85
2023/10/26 03:25:40;;;;;;;5.97;3.83;;;;;;;8.08;100.00;99616.69;5034002;28;20018;-84
2023/10/26 03:28:11;;;;;;;7.07;4.07;;;;;;;7.96;100.00;99602.31;5034833;28;20025;-85
2023/10/26 03:30:37;;;;;;;6.45;3.75;;;;;;;7.96;100.00;99611.81;5034972;28;20466;-85
2023/10/26 03:33:02;;;;;;;5.77;3.60;;;;;;;8.00;100.00;99618.59;5033757;28;20033;-84
2023/10/26 03:35:27;;;;;;;6.43;3.70;;;;;;;7.97;100.00;99618.69;5034395;28;20084;-85
2023/10/26 03:37:53;;;;;;;6.47;3.70;;;;;;;7.92;100.00;99623.97;5034493;28;20496;-85
2023/10/26 03:40:18;;;;;;;4.97;3.30;;;;;;;7.87;100.00;99612.88;5034088;28;20079;-85
2023/10/26 03:42:43;;;;;;;4.77;3.10;;;;;;;7.82;100.00;99607.84;5034112;28;20034;-85
2023/10/26 03:45:09;;;;;;;4.80;3.07;;;;;;;7.79;100.00;99610.47;5034467;28;20025;-85
2023/10/26 03:47:35;;;;;;;3.47;2.75;;;;;;;7.72;100.00;99612.34;5033698;28;20038;-85
2023/10/26 03:50:00;;;;;;;3.63;2.60;;;;;;;7.65;100.00;99602.22;5034216;28;20043;-85
2023/10/26 03:52:25;;;;;;;3.30;2.70;;;;;;;7.67;100.00;99611.63;5034110;28;20034;-84
2023/10/26 03:54:51;;;;;;;3.53;2.70;;;;;;;7.64;100.00;99606.53;5033451;28;20025;-85
2023/10/26 03:57:16;;;;;;;3.47;2.65;;;;;;;7.53;100.00;99588.72;5033250;28;20037;-85
2023/10/26 03:59:42;;;;;;;3.13;2.58;;;;;;;7.58;100.00;99592.03;5034151;28;20123;-84
2023/10/26 04:02:07;;;;;;;2.67;2.27;;;;;;;7.55;100.00;99583.50;5033591;28;20474;-85
2023/10/26 04:04:33;;;;;;;2.97;2.37;;;;;;;7.53;100.00;99586.13;5034132;28;20398;-85
2023/10/26 04:06:58;;;;;;;2.78;2.40;;;;;;;7.53;100.00;99587.84;5034246;28;20017;-85
2023/10/26 04:09:24;;;;;;;3.07;2.53;;;;;;;7.51;100.00;99587.91;5033430;28;20028;-85
2023/10/26 04:11:49;;;;;;;3.25;2.50;;;;;;;7.46;100.00;99579.41;5033780;28;20112;-85
2023/10/26 04:14:14;;;;;;;3.23;2.40;;;;;;;7.53;100.00;99588.72;5034212;28;20032;-85
2023/10/26 04:16:39;;;;;;;3.30;2.50;;;;;;;7.56;100.00;99587.78;5032859;28;20021;-85
2023/10/26 04:19:05;;;;;;;3.67;2.60;;;;;;;7.61;100.00;99588.50;5033975;28;20390;-85
2023/10/26 04:21:31;;;;;;;4.10;2.70;;;;;;;7.66;100.00;99589.28;5033911;28;20017;-85
2023/10/26 04:23:56;;;;;;;4.37;2.87;;;;;;;7.70;100.00;99590.91;5032971;28;20033;-85
2023/10/26 04:26:21;;;;;;;4.67;3.10;;;;;;;7.73;100.00;99588.22;5033804;28;20033;-85
2023/10/26 04:28:49;;;;;;;4.60;3.10;;;;;;;7.77;100.00;99596.75;5032535;28;20116;-84
2023/10/26 04:31:15;;;;;;;4.95;3.22;;;;;;;7.69;100.00;99575.44;5034374;28;20072;-85
2023/10/26 04:33:40;;;;;;;4.50;3.00;;;;;;;7.78;100.00;99582.94;5033298;28;20478;-84
2023/10/26 04:36:06;;;;;;;4.50;2.97;;;;;;;7.83;100.00;99588.00;5033041;28;20029;-85
2023/10/26 04:38:35;;;;;;;4.03;2.70;;;;;;;7.87;100.00;99592.22;5033906;28;20037;-85
2023/10/26 04:41:00;;;;;;;3.65;2.80;;;;;;;7.84;100.00;99579.38;5033159;28;20112;-85
2023/10/26 04:43:26;;;;;;;3.77;2.60;;;;;;;7.88;100.00;99581.84;5032882;28;20145;-85
2023/10/26 04:45:51;;;;;;;3.08;2.60;;;;;;;7.89;100.00;99578.38;5033353;28;20017;-85
2023/10/26 04:48:16;;;;;;;3.43;2.60;;;;;;;7.87;100.00;99585.34;5033413;28;20018;-85
2023/10/26 04:50:42;;;;;;;3.60;2.80;;;;;;;7.86;100.00;99587.94;5032608;28;20029;-85
2023/10/26 04:53:08;;;;;;;3.20;2.50;;;;;;;7.87;100.00;99587.06;5033603;28;20373;-85
2023/10/26 04:55:34;;;;;;;3.07;2.60;;;;;;;7.80;100.00;99578.59;5033054;28;20014;-85
2023/10/26 04:58:00;;;;;;;2.50;2.27;;;;;;;7.74;100.00;99576.19;5032297;28;20538;-85
2023/10/26 05:00:26;;;;;;;3.13;2.60;;;;;;;7.78;100.00;99582.94;5033250;28;20037;-85
2023/10/26 05:02:52;;;;;;;3.15;2.47;;;;;;;7.76;100.00;99581.31;5032551;28;20370;-83
2023/10/26 05:05:17;;;;;;;3.30;2.57;;;;;;;7.73;100.00;99579.66;5031546;28;20041;-84
2023/10/26 05:07:44;;;;;;;3.37;2.70;;;;;;;7.69;100.00;99583.19;5031850;28;20076;-85
2023/10/26 05:10:10;;;;;;;4.15;2.88;;;;;;;7.68;100.00;99586.66;5036928;28;20036;-86
2023/10/26 05:12:38;;;;;;;3.17;2.60;;;;;;;7.65;100.00;99576.41;5052168;28;20029;-85
2023/10/26 05:15:03;;;;;;;4.22;2.95;;;;;;;7.69;100.00;99578.00;5041564;28;20108;-85
2023/10/26 05:17:28;;;;;;;4.07;2.90;;;;;;;7.70;100.00;99579.72;5032849;28;20064;-85
2023/10/26 05:19:54;;;;;;;4.27;3.00;;;;;;;7.68;100.00;99576.31;5031749;28;20050;-85
2023/10/26 05:22:19;;;;;;;4.30;3.00;;;;;;;7.67;100.00;99577.19;5032682;28;20136;-85
2023/10/26 05:24:45;;;;;;;4.97;3.23;;;;;;;7.67;100.00;99575.47;5032825;28;20021;-84
2023/10/26 05:27:11;;;;;;;4.13;2.97;;;;;;;7.62;100.00;99568.72;5042690;28;20029;-85
2023/10/26 05:29:36;;;;;;;3.90;2.70;;;;;;;7.62;100.00;99577.31;5052884;28;20090;-85
2023/10/26 05:32:02;;;;;;;3.70;2.70;;;;;;;7.63;100.00;99573.00;5051645;28;20051;-85
2023/10/26 05:34:28;;;;;;;2.80;2.40;;;;;;;7.62;100.00;99572.13;5052743;28;20033;-86
2023/10/26 05:36:53;;;;;;;3.92;2.80;;;;;;;7.62;100.00;99568.72;5052315;28;20032;-85
2023/10/26 05:39:19;;;;;;;4.07;2.83;;;;;;;7.61;100.00;99574.78;5052314;28;20067;-85
2023/10/26 05:41:44;;;;;;;4.17;2.93;;;;;;;7.60;100.00;99571.31;5040779;28;20029;-85
2023/10/26 05:44:10;;;;;;;4.57;3.00;;;;;;;7.56;100.00;99567.13;5032502;28;20071;-85
2023/10/26 05:46:38;;;;;;;8.55;4.80;;;;;;;7.45;100.00;99575.13;5031934;28;20030;-85
2023/10/26 05:49:05;;;;;;;9.75;5.38;;;;;;;7.23;100.00;99557.53;5032050;28;20028;-84
2023/10/26 05:51:30;;;;;;;7.57;4.28;;;;;;;7.34;100.00;99571.94;5032479;28;20112;-85
2023/10/26 05:53:55;;;;;;;6.83;4.20;;;;;;;7.38;100.00;99579.56;5031327;28;20144;-85
2023/10/26 05:56:21;;;;;;;6.45;3.80;;;;;;;7.38;100.00;99571.81;5032407;28;20030;-84
2023/10/26 05:58:50;;;;;;;5.70;3.50;;;;;;;7.31;100.00;99554.78;5031928;28;20402;-85
2023/10/26 06:01:15;;;;;;;6.10;4.00;;;;;;;7.34;100.00;99566.75;5031955;28;20068;-84
2023/10/26 06:03:40;;;;;;;5.20;3.43;;;;;;;7.23;100.00;99554.13;5032086;28;20049;-84
2023/10/26 06:06:06;;;;;;;5.38;3.40;;;;;;;7.26;100.00;99549.72;5032305;28;20026;-84
2023/10/26 06:08:31;;;;;;;4.40;3.00;;;;;;;7.31;100.00;99546.22;5031256;28;20033;-84
2023/10/26 06:10:57;;;;;;;4.95;3.33;;;;;;;7.31;100.00;99544.47;5032044;28;20036;-83
2023/10/26 06:13:24;;;;;;;5.45;3.17;;;;;;;7.33;100.00;99550.44;5043511;28;20059;-82
2023/10/26 06:15:49;;;;;;;4.53;3.15;;;;;;;7.36;100.00;99557.25;5054596;28;20029;-83
2023/10/26 06:18:15;;;;;;;3.87;2.87;;;;;;;7.34;100.00;99557.31;5038398;28;20045;-83
2023/10/26 06:20:40;;;;;;;3.10;2.50;;;;;;;7.35;100.00;99561.59;5036054;28;20402;-83
2023/10/26 06:23:05;;;;;;;3.10;2.33;;;;;;;7.33;100.00;99550.44;5035318;28;20104;-82
2023/10/26 06:25:38;;;;;;;2.80;2.33;;;;;;;7.34;100.00;99567.63;5036163;28;20033;-84
2023/10/26 06:28:04;;;;;;;3.05;2.40;;;;;;;7.33;100.00;99567.66;5035933;28;20052;-84
2023/10/26 06:30:31;;;;;;;2.83;2.30;;;;;;;7.34;100.00;99565.06;5053960;28;20466;-86
2023/10/26 06:33:00;;;;;;;2.47;2.05;;;;;;;7.34;100.00;99553.84;5055345;28;20025;-86
2023/10/26 06:35:29;;;;;;;2.88;2.33;;;;;;;7.38;100.00;99555.50;5043675;28;20030;-86
2023/10/26 06:37:54;;;;;;;3.20;2.40;;;;;;;7.34;100.00;99556.44;5035500;28;20124;-86
2023/10/26 06:40:19;;;;;;;2.33;2.10;;;;;;;7.34;100.00;99566.75;5035645;28;20058;-84
2023/10/26 06:42:44;;;;;;;2.35;2.13;;;;;;;7.37;100.00;99571.88;5034452;28;20079;-84
2023/10/26 06:45:10;;;;;;;3.13;2.30;;;;;;;7.26;100.00;99547.16;5035335;28;20071;-85
2023/10/26 06:47:39;;;;;;;3.27;2.50;;;;;;;7.28;100.00;99551.44;5034533;28;20120;-85
2023/10/26 06:50:06;;;;;;;3.70;2.67;;;;;;;7.40;100.00;99566.66;5033588;28;20021;-84
2023/10/26 06:52:31;;;;;;;3.35;2.40;;;;;;;7.31;100.00;99552.22;5034596;28;20041;-84
2023/10/26 06:54:56;;;;;;;3.03;2.40;;;;;;;7.34;100.00;99562.47;5035343;28;20030;-83
2023/10/26 06:57:35;;;;;;;3.03;2.40;;;;;;;7.40;100.00;99564.91;5034768;28;20408;-84
2023/10/26 07:00:01;;;;;;;2.90;2.30;;;;;;;7.40;100.00;99556.31;5015551;28;20025;-85
2023/10/26 07:02:26;;;;;;;2.50;2.13;;;;;;;7.31;100.00;99547.03;5033419;28;20052;-84
2023/10/26 07:04:52;;;;;;;2.83;2.30;;;;;;;7.42;100.00;99567.47;5034185;28;20040;-84
2023/10/26 07:07:17;;;;;;;4.63;3.17;;;;;;;7.35;100.00;99561.59;5034748;28;20041;-84
2023/10/26 07:09:43;;;;;;;5.53;3.38;;;;;;;7.38;100.00;99569.25;5035059;28;20055;-84
2023/10/26 07:12:08;;;;;;;4.70;3.13;;;;;;;7.32;100.00;99560.81;5032551;28;20055;-84
2023/10/26 07:14:34;;;;;;;4.57;3.07;;;;;;;7.31;100.00;99556.53;5035214;28;20382;-84
2023/10/26 07:16:59;;;;;;;5.17;3.27;;;;;;;7.33;100.00;99541.84;5034652;28;20033;-84
2023/10/26 07:19:25;;;;;;;4.00;2.70;;;;;;;7.40;100.00;99556.31;5033947;28;20046;-84
2023/10/26 07:21:50;;;;;;;4.43;2.93;;;;;;;7.45;100.00;99548.47;5034774;28;20405;-84
2023/10/26 07:24:15;;;;;;;4.70;3.00;;;;;;;7.47;100.00;99549.28;5034708;28;20021;-84
2023/10/26 07:26:40;;;;;;;4.23;2.83;;;;;;;7.48;100.00;99544.06;5033311;28;20044;-84
2023/10/26 07:29:06;;;;;;;4.30;2.83;;;;;;;7.56;100.00;99554.22;5034411;28;20028;-84
2023/10/26 07:31:31;;;;;;;4.97;3.20;;;;;;;7.57;100.00;99549.00;5033817;28;20474;-84
2023/10/26 07:33:57;;;;;;;4.35;3.03;;;;;;;7.53;100.00;99537.09;5034433;28;20029;-84
2023/10/26 07:36:25;;;;;;;5.43;3.43;;;;;;;7.63;100.00;99549.75;5034366;28;20103;-84
2023/10/26 07:38:51;;;;;;;6.15;3.67;;;;;;;7.63;100.00;99545.44;5033746;28;20029;-84
2023/10/26 07:41:16;;;;;;;4.80;3.17;;;;;;;7.63;100.00;99549.75;5034598;28;20033;-84
2023/10/26 07:43:42;;;;;;;8.93;4.47;;;;;;;7.55;100.00;99550.78;5034182;28;20041;-84
2023/10/26 07:46:07;;;;;;;13.17;6.63;;;;;;;7.44;100.00;99545.03;5033627;28;20514;-84
2023/10/26 07:48:34;;;;;;;13.07;6.43;;;;;;;7.38;100.00;99550.34;5034178;28;20120;-84
2023/10/26 07:50:59;;;;;;;10.02;5.13;;;;;;;7.39;100.00;99555.44;5033863;28;20413;-84
2023/10/26 07:53:24;;;;;;;9.10;4.73;;;;;;;7.51;100.00;99566.38;5033709;28;20037;-84
2023/10/26 07:55:56;;;;;;;7.45;4.13;;;;;;;7.58;100.00;99571.38;5033925;28;20017;-83
2023/10/26 07:58:22;;;;;;;6.78;3.80;;;;;;;7.66;100.00;99571.19;5034337;28;20152;-84
2023/10/26 08:00:47;;;;;;;6.73;3.87;;;;;;;7.70;100.00;99570.25;5033263;28;20041;-84
2023/10/26 08:03:12;;;;;;;4.87;3.17;;;;;;;7.73;100.00;99574.47;5034098;28;20033;-84
2023/10/26 08:05:38;;;;;;;6.10;3.40;;;;;;;7.78;100.00;99579.53;5034041;28;20025;-84
2023/10/26 08:08:06;;;;;;;5.13;3.10;;;;;;;7.79;100.00;99576.06;5033529;28;20033;-84
2023/10/26 08:10:36;;;;;;;4.70;3.20;;;;;;;7.86;100.00;99585.34;5034124;28;20036;-84
2023/10/26 08:13:05;;;;;;;5.38;3.20;;;;;;;7.89;100.00;99580.13;5040201;28;20028;-84
2023/10/26 08:15:30;;;;;;;7.07;3.88;;;;;;;7.89;100.00;99591.28;5053119;28;20029;-84
2023/10/26 08:17:55;;;;;;;6.10;3.50;;;;;;;7.87;100.00;99590.50;5039668;28;20029;-84
2023/10/26 08:20:21;;;;;;;6.37;3.87;;;;;;;7.95;100.00;99590.28;5033529;28;20221;-84
2023/10/26 08:22:46;;;;;;;4.20;2.95;;;;;;;8.00;100.00;99588.47;5032587;28;20021;-84
2023/10/26 08:25:11;;;;;;;4.28;2.90;;;;;;;8.04;100.00;99584.06;5033972;28;20026;-84
2023/10/26 08:27:37;;;;;;;4.17;2.73;;;;;;;8.02;100.00;99588.41;5033748;28;20493;-84
2023/10/26 08:30:03;;;;;;;4.97;2.95;;;;;;;8.18;100.00;99591.44;5046060;28;20029;-84
2023/10/26 08:32:29;;;;;;;3.55;2.45;;;;;;;8.12;100.00;99587.28;5053199;28;20032;-84
2023/10/26 08:34:56;;;;;;;3.00;2.38;;;;;;;8.16;100.00;99591.50;5052889;28;20017;-83
2023/10/26 08:37:21;;;;;;;4.20;2.85;;;;;;;8.18;100.00;99591.44;5053169;28;20082;-84
2023/10/26 08:39:46;;;;;;;4.30;2.70;;;;;;;8.25;100.00;99595.59;5053168;28;20104;-85
2023/10/26 08:42:12;;;;;;;4.15;2.80;;;;;;;8.12;100.00;99587.28;5035633;28;20038;-84
2023/10/26 08:44:38;;;;;;;4.93;3.00;;;;;;;8.10;100.00;99586.50;5033702;28;20021;-85
2023/10/26 08:47:05;;;;;;;5.25;2.90;;;;;;;8.14;100.00;99595.84;5032908;28;20024;-85
2023/10/26 08:49:31;;;;;;;6.22;3.30;;;;;;;8.17;100.00;99598.38;5032451;28;20486;-84
2023/10/26 08:51:57;;;;;;;7.88;4.13;;;;;;;8.18;100.00;99591.44;5033410;28;20030;-84
2023/10/26 08:54:23;;;;;;;6.93;3.73;;;;;;;8.16;100.00;99583.75;5033490;28;20032;-85
2023/10/26 08:56:48;;;;;;;6.85;3.63;;;;;;;8.21;100.00;99593.13;5032470;28;20359;-85
2023/10/26 08:59:14;;;;;;;8.00;4.00;;;;;;;8.23;100.00;99594.78;5032687;28;20033;-84
2023/10/26 09:01:44;;;;;;;6.87;3.77;;;;;;;8.29;100.00;99591.19;5033140;28;20029;-84
2023/10/26 09:04:11;;;;;;;6.40;3.63;;;;;;;8.32;100.00;99589.38;5032475;28;20478;-84
2023/10/26 09:06:48;;;;;;;8.48;4.38;;;;;;;8.40;100.00;99586.59;5033354;28;20045;-84
2023/10/26 09:09:15;;;;;;;7.78;4.10;;;;;;;8.42;100.00;99576.19;5033337;28;20353;-84
2023/10/26 09:11:41;;;;;;;9.30;4.50;;;;;;;8.47;100.00;99579.53;5031810;28;20052;-83
2023/10/26 09:14:16;;;;;;;11.48;5.18;;;;;;;8.47;100.00;99580.38;5033060;28;20032;-84
2023/10/26 09:16:44;;;;;;;11.95;5.47;;;;;;;8.45;100.00;99586.47;5032860;28;20525;-84
2023/10/26 09:19:11;;;;;;;16.50;7.22;;;;;;;8.37;100.00;99586.66;5032229;28;20073;-84
2023/10/26 09:21:54;;;;;;;13.68;6.18;;;;;;;8.45;100.00;99589.88;5033356;28;20029;-84
2023/10/26 09:24:27;;;;;;;14.38;6.40;;;;;;;8.50;100.00;99571.69;5032145;28;20023;-83
2023/10/26 09:26:54;;;;;;;15.43;7.20;;;;;;;8.54;100.00;99577.66;5032462;28;20104;-84
2023/10/26 09:29:20;;;;;;;17.33;8.52;;;;;;;8.45;100.00;99581.28;5032639;28;20544;-84
2023/10/26 09:31:53;;;;;;;16.20;7.70;;;;;;;8.42;100.00;99568.44;5031404;28;20091;-85
2023/10/26 09:34:22;;;;;;;14.73;6.68;;;;;;;8.52;100.00;99571.66;5032564;28;20068;-84
2023/10/26 09:37:02;;;;;;;13.07;5.93;;;;;;;8.65;100.00;99578.19;5012747;28;20062;-85
2023/10/26 09:39:30;;;;;;;14.77;6.60;;;;;;;8.68;100.00;99572.91;5013301;28;20068;-84
2023/10/26 09:41:57;;;;;;;11.32;5.70;;;;;;;8.67;100.00;99576.41;5012735;28;20041;-85
2023/10/26 09:44:23;;;;;;;9.75;4.93;;;;;;;8.74;100.00;99572.75;5032029;28;20400;-84
2023/10/26 09:46:49;;;;;;;11.33;5.50;;;;;;;8.82;100.00;99572.56;5031604;28;20022;-84
2023/10/26 09:49:15;;;;;;;11.18;5.60;;;;;;;8.83;100.00;99563.03;5035260;28;20029;-84
2023/10/26 09:51:40;;;;;;;9.17;4.77;;;;;;;8.85;100.00;99567.28;5036466;28;20076;-84
2023/10/26 09:54:08;;;;;;;8.20;4.33;;;;;;;8.91;100.00;99571.44;5036201;28;20025;-84
2023/10/26 09:56:36;;;;;;;6.45;3.70;;;;;;;8.93;100.00;99565.34;5036995;28;20469;-84
2023/10/26 09:59:03;;;;;;;6.38;3.60;;;;;;;8.95;100.00;99567.88;5036248;28;20042;-84
2023/10/26 10:01:33;;;;;;;5.93;3.45;;;;;;;9.01;100.00;99565.09;5035759;28;20025;-84
2023/10/26 10:03:59;;;;;;;6.40;3.38;;;;;;;9.02;100.00;99553.84;5036445;28;20025;-84
2023/10/26 10:06:52;;;;;;;4.70;2.90;;;;;;;9.08;100.00;99556.25;5035679;28;20021;-84
2023/10/26 10:09:21;;;;;;;7.78;3.90;;;;;;;9.01;100.00;99556.50;5036706;28;20041;-84
2023/10/26 10:12:14;;;;;;;9.93;4.70;;;;;;;8.98;100.00;99567.78;5036507;28;20048;-89
2023/10/26 10:14:48;;;;;;;8.63;4.28;;;;;;;9.03;100.00;99563.31;5035163;28;20087;-86
2023/10/26 10:17:18;;;;;;;11.13;5.20;;;;;;;9.09;100.00;99560.56;5036662;28;20045;-88
2023/10/26 10:19:46;;;;;;;11.15;5.30;;;;;;;9.12;100.00;99557.84;5036175;28;20113;-88
2023/10/26 10:22:38;;;;;;;11.90;5.43;;;;;;;9.14;100.00;99546.59;5036526;28;20437;-88
2023/10/26 10:25:10;;;;;;;19.70;9.55;;;;;;;9.01;100.00;99539.22;5036249;28;20036;-88
2023/10/26 10:27:36;;;;;;;16.88;7.40;;;;;;;9.03;100.00;99534.84;5035888;28;20128;-87
2023/10/26 10:30:11;;;;;;;15.97;6.83;;;;;;;9.05;100.00;99529.63;5036218;28;20104;-87
2023/10/26 10:32:42;;;;;;;21.60;10.80;;;;;;;9.02;100.00;99527.13;5042876;23;20354;-87
2023/10/26 10:35:09;;;;;;;19.05;9.68;;;;;;;8.90;100.00;99505.03;5035910;28;20478;-88
2023/10/26 10:37:37;;;;;;;18.48;8.77;;;;;;;9.04;100.00;99518.41;5036008;28;20120;-88
2023/10/26 10:40:11;;;;;;;17.85;8.48;;;;;;;9.02;100.00;99512.44;5036084;28;20234;-88
2023/10/26 10:43:04;;;;;;;14.95;6.78;;;;;;;9.03;100.00;99508.13;5035688;28;20103;-88
2023/10/26 10:45:38;;;;;;;16.40;7.68;;;;;;;9.12;100.00;99515.59;5036165;28;20029;-87
2023/10/26 10:48:15;;;;;;;15.07;6.65;;;;;;;9.14;100.00;99520.72;5035223;28;20061;-87
2023/10/26 10:51:11;;;;;;;16.25;7.25;;;;;;;9.08;100.00;99501.91;5035405;28;20040;-87
2023/10/26 10:53:36;;;;;;;14.52;6.38;;;;;;;9.21;100.00;99520.50;5036134;28;20033;-88
2023/10/26 10:56:04;;;;;;;18.20;8.23;;;;;;;9.09;100.00;99503.63;5034456;28;20032;-88
2023/10/26 10:58:39;;;;;;;23.25;12.07;;;;;;;8.95;100.00;99495.41;5035824;28;20037;-88
2023/10/26 11:01:20;;;;;;;21.88;10.98;;;;;;;8.99;100.00;99502.19;5034209;28;20030;-88
2023/10/26 11:04:02;;;;;;;22.00;11.82;;;;;;;8.97;100.00;99493.63;5034844;28;20034;-86
2023/10/26 11:06:27;;;;;;;21.08;10.45;;;;;;;9.03;100.00;99492.59;5035458;28;20112;-87
2023/10/26 11:08:52;;;;;;;19.07;9.07;;;;;;;9.15;100.00;99502.56;5035046;28;20120;-87
2023/10/26 11:11:29;;;;;;;20.07;10.03;;;;;;;9.13;100.00;99486.25;5030303;28;20029;-87
2023/10/26 11:14:04;;;;;;;;;;;;;;;9.30;100.00;99503.84;5035309;28;20057;-86
2023/10/26 11:16:29;;;;;;;22.98;12.30;;;;;;;9.23;100.00;99500.59;5033861;28;20391;-87
2023/10/26 11:18:55;;;;;;;22.27;11.47;;;;;;;9.23;100.00;99499.75;5034421;28;20025;-87
2023/10/26 11:21:20;;;;;;;21.13;11.27;;;;;;;9.27;100.00;99512.56;5035162;28;20025;-87
2023/10/26 11:23:52;;;;;;;20.23;10.20;;;;;;;9.33;100.00;99501.16;5034061;28;20121;-87
2023/10/26 11:26:18;;;;;;;18.17;8.65;;;;;;;9.44;100.00;99511.16;5035441;28;20386;-87
2023/10/26 11:28:46;;;;;;;18.40;8.43;;;;;;;9.50;100.00;99497.16;5020676;28;20037;-86
2023/10/26 11:31:11;;;;;;;18.27;8.70;;;;;;;9.60;100.00;99493.38;5034321;28;20053;-86
2023/10/26 11:33:44;;;;;;;22.23;11.40;;;;;;;9.71;100.00;99493.88;5034522;28;20096;-86
2023/10/26 11:36:11;;;;;;;20.98;10.48;;;;;;;9.78;100.00;99496.25;5034308;28;20056;-86
2023/10/26 11:38:50;;;;;;;20.08;10.40;;;;;;;9.86;100.00;99489.06;5034343;28;20091;-86